Time;durP1;ratioP1;P1;durP2;ratioP2;P2;SDS_P1;SDS_P2;PMS_P1;PMS_P2;Temp;Humidity;BMP_temperature;BMP_pressure;BME280_temperature;BME280_humidity;BME280_pressure;Samples;Min_cycle;Max_cycle;Signal;HPM_P1;HPM_P2
2022/11/10 00:03:05;;;;;;;3.63;3.33;;;;;;;0.02;67.91;97513.22;6185599;28;20390;-71
2022/11/10 00:06:10;;;;;;;3.47;3.05;;;;;;;0.01;67.87;97508.94;6186501;28;20082;-70
2022/11/10 00:09:17;;;;;;;3.15;2.25;;;;;;;0.12;68.25;97509.66;6183570;28;20038;-70
2022/11/10 00:12:19;;;;;;;;;;;;;;;0.14;67.58;97505.28;6184247;28;20699;-70
2022/11/10 00:18:43;;;;;;;3.00;2.70;;;;;;;-0.21;68.27;97503.16;6160686;28;20058;-70
2022/11/10 00:21:45;;;;;;;1.65;1.55;;;;;;;-0.28;68.22;97513.59;6155487;28;20237;-71
2022/11/10 00:24:50;;;;;;;1.80;1.65;;;;;;;-0.32;68.97;97513.63;6158835;28;20472;-70
2022/11/10 00:27:52;;;;;;;4.20;2.72;;;;;;;-0.38;68.23;97511.13;6157994;28;20141;-70
2022/11/10 00:30:56;;;;;;;3.17;2.83;;;;;;;-0.39;68.68;97519.75;6162784;28;20077;-70
2022/11/10 00:33:57;;;;;;;3.45;2.85;;;;;;;-0.44;69.02;97506.03;6172883;28;20113;-70
2022/11/10 00:37:04;;;;;;;3.42;2.17;;;;;;;-0.20;68.95;97510.88;6158994;28;20604;-70
2022/11/10 00:40:06;;;;;;;3.35;2.85;;;;;;;-0.28;68.43;97512.75;6157657;28;20102;-69
2022/11/10 00:43:13;;;;;;;3.35;2.25;;;;;;;-0.10;67.97;97509.91;6170758;28;20039;-70
2022/11/10 00:46:15;;;;;;;2.72;2.47;;;;;;;-0.12;68.63;97505.63;6169573;28;20186;-70
2022/11/10 00:49:19;;;;;;;2.50;2.20;;;;;;;0.08;67.57;97513.13;6169151;28;20074;-70
2022/11/10 00:52:24;;;;;;;5.50;2.63;;;;;;;0.10;67.29;97524.34;6171730;28;20078;-71
2022/11/10 00:55:31;;;;;;;3.10;2.70;;;;;;;0.06;67.14;97507.13;6167564;28;20046;-70
2022/11/10 00:58:36;;;;;;;2.58;2.15;;;;;;;0.03;68.01;97520.09;6170650;28;20055;-70
2022/11/10 01:01:37;;;;;;;2.47;2.28;;;;;;;0.14;67.86;97513.06;6167614;28;20055;-70
2022/11/10 01:04:44;;;;;;;2.40;2.15;;;;;;;-0.05;68.17;97505.53;6157032;28;20038;-71
2022/11/10 01:07:50;;;;;;;2.55;2.33;;;;;;;-0.03;67.83;97503.81;6164609;28;20050;-69
2022/11/10 01:10:59;;;;;;;2.15;1.85;;;;;;;-0.08;68.17;97505.59;6167707;28;20186;-70
2022/11/10 01:14:08;;;;;;;2.63;2.42;;;;;;;-0.24;69.17;97501.47;6170313;28;20051;-70
2022/11/10 01:17:13;;;;;;;3.85;2.42;;;;;;;-0.24;68.46;97504.91;6188642;28;20140;-70
2022/11/10 01:20:17;;;;;;;2.78;2.42;;;;;;;-0.39;68.81;97519.75;6189397;28;20046;-70
2022/11/10 01:23:21;;;;;;;2.72;2.20;;;;;;;-0.48;69.49;97516.41;6191388;28;20038;-70
2022/11/10 01:26:24;;;;;;;2.75;2.28;;;;;;;-0.25;68.81;97508.38;6191006;28;20043;-70
2022/11/10 01:29:28;;;;;;;2.92;2.25;;;;;;;-0.11;68.40;97518.56;6195898;28;20501;-70
2022/11/10 01:32:30;;;;;;;2.33;2.10;;;;;;;-0.19;68.35;97520.38;6193083;28;20046;-71
2022/11/10 01:35:39;;;;;;;1.38;1.17;;;;;;;-0.18;68.17;97518.63;6186172;28;20457;-70
2022/11/10 01:38:44;;;;;;;1.73;1.55;;;;;;;0.01;67.47;97519.28;6187381;28;20101;-71
2022/11/10 01:41:46;;;;;;;2.25;1.10;;;;;;;-0.04;67.94;97512.41;6196687;28;20509;-71
2022/11/10 01:45:29;;;;;;;1.15;1.05;;;;;;;0.11;67.36;97507.91;6186574;28;20157;-71
2022/11/10 01:48:46;;;;;;;2.17;1.60;;;;;;;0.10;67.45;97513.97;6196075;28;20046;-71
2022/11/10 01:51:58;;;;;;;1.52;1.42;;;;;;;0.25;67.15;97498.22;6181299;28;20061;-70
2022/11/10 01:55:03;;;;;;;1.55;1.20;;;;;;;0.34;66.19;97492.94;6190398;28;20058;-70
2022/11/10 01:58:06;;;;;;;1.48;1.38;;;;;;;0.29;66.51;97474.03;6191505;28;20042;-70
2022/11/10 02:01:10;;;;;;;1.67;1.50;;;;;;;0.29;66.72;97474.03;6191913;28;20136;-70
2022/11/10 02:04:15;;;;;;;1.70;1.60;;;;;;;0.22;67.56;97472.41;6196473;28;20041;-70
2022/11/10 02:07:23;;;;;;;1.55;1.40;;;;;;;0.17;67.72;97474.19;6180278;28;20049;-71
2022/11/10 02:10:28;;;;;;;1.48;1.30;;;;;;;0.11;67.71;97476.88;6188059;28;20153;-70
2022/11/10 02:13:31;;;;;;;1.55;1.45;;;;;;;0.24;67.05;97468.06;6193901;28;20377;-70
2022/11/10 02:16:35;;;;;;;1.80;1.33;;;;;;;0.18;67.41;97476.78;6192110;28;20733;-70
2022/11/10 02:19:42;;;;;;;1.40;1.30;;;;;;;0.20;66.84;97474.19;6188124;28;20125;-70
2022/11/10 02:22:46;;;;;;;1.83;1.48;;;;;;;0.18;67.28;97487.13;6183653;28;20154;-70
2022/11/10 02:25:47;;;;;;;1.40;0.90;;;;;;;0.32;67.06;97510.22;6186914;28;20042;-70
2022/11/10 02:28:51;;;;;;;1.77;1.30;;;;;;;0.29;66.32;97466.28;6192258;28;20054;-70
2022/11/10 02:32:00;;;;;;;1.45;1.20;;;;;;;0.25;66.77;97459.41;6194347;28;20052;-70
2022/11/10 02:35:02;;;;;;;1.80;1.33;;;;;;;0.31;66.62;97472.28;6183789;28;20049;-70
2022/11/10 02:38:05;;;;;;;1.88;1.30;;;;;;;0.42;66.07;97475.53;6188168;28;20122;-70
2022/11/10 02:41:11;;;;;;;1.83;1.73;;;;;;;0.31;66.23;97472.28;6187235;28;20038;-70
2022/11/10 02:44:18;;;;;;;2.55;1.90;;;;;;;0.30;66.04;97473.16;6187361;28;20665;-70
2022/11/10 02:47:24;;;;;;;2.13;1.88;;;;;;;0.12;67.04;97478.59;6192009;28;20049;-70
2022/11/10 02:50:28;;;;;;;4.10;1.60;;;;;;;0.20;66.75;97494.88;6192640;28;20521;-70
2022/11/10 02:53:30;;;;;;;1.90;1.75;;;;;;;0.24;66.13;97481.00;6188417;28;20054;-69
2022/11/10 02:56:36;;;;;;;1.83;1.58;;;;;;;0.31;66.52;97485.22;6172255;28;20047;-69
2022/11/10 02:59:41;;;;;;;2.55;1.98;;;;;;;0.17;66.18;97489.72;6194963;28;20050;-70
2022/11/10 03:02:47;;;;;;;2.40;2.05;;;;;;;0.18;66.53;97497.47;6193307;28;20543;-70
2022/11/10 03:05:51;;;;;;;5.63;3.20;;;;;;;0.16;66.80;97490.59;6199475;28;20049;-69
2022/11/10 03:08:57;;;;;;;4.30;2.58;;;;;;;0.14;66.49;97492.34;6189166;28;20034;-70
2022/11/10 03:12:01;;;;;;;1.95;1.70;;;;;;;0.01;67.23;97503.75;6200028;28;20489;-71
2022/11/10 03:15:08;;;;;;;3.20;2.00;;;;;;;0.11;67.29;97507.91;6198763;28;20038;-70
2022/11/10 03:18:11;;;;;;;3.75;2.15;;;;;;;0.25;66.89;97502.56;6193870;28;20137;-70
2022/11/10 03:21:15;;;;;;;1.30;1.20;;;;;;;0.32;66.11;97497.28;6193469;28;20494;-69
2022/11/10 03:24:22;;;;;;;1.60;1.40;;;;;;;0.32;66.11;97501.59;6195526;28;20133;-70
2022/11/10 03:27:26;;;;;;;1.40;0.95;;;;;;;0.39;66.80;97508.41;6196779;28;20047;-70
2022/11/10 03:30:30;;;;;;;1.08;1.08;;;;;;;0.39;66.48;97508.41;6178608;28;20449;-70
2022/11/10 03:33:50;;;;;;;1.58;1.48;;;;;;;0.40;66.09;97508.38;6189789;28;20098;-70
2022/11/10 03:36:51;;;;;;;3.03;1.80;;;;;;;0.42;66.30;97519.56;6189103;28;20066;-70
2022/11/10 03:39:58;;;;;;;1.50;1.40;;;;;;;0.44;65.82;97520.41;6193244;28;20042;-71
2022/11/10 03:43:02;;;;;;;1.23;0.95;;;;;;;0.40;66.54;97518.75;6199279;28;20407;-70
2022/11/10 03:46:03;;;;;;;2.13;1.80;;;;;;;0.49;66.37;97511.72;6197344;28;20065;-70
2022/11/10 03:49:07;;;;;;;1.52;1.35;;;;;;;0.46;66.19;97511.78;6200452;28;20050;-71
2022/11/10 03:52:13;;;;;;;1.20;1.00;;;;;;;0.34;67.41;97502.41;6197375;28;20030;-70
2022/11/10 03:55:17;;;;;;;1.95;1.50;;;;;;;0.51;66.08;97515.13;6196419;28;20504;-71
2022/11/10 03:58:21;;;;;;;1.48;1.33;;;;;;;0.40;66.29;97512.72;6200086;28;20049;-70
2022/11/10 04:01:26;;;;;;;1.38;1.13;;;;;;;0.56;66.58;97508.16;6195503;28;20133;-71
2022/11/10 04:18:20;;;;;;;1.40;1.30;;;;;;;0.78;65.00;97525.06;6180048;28;20410;-70
2022/11/10 04:21:23;;;;;;;0.90;0.75;;;;;;;0.84;65.37;97524.13;6198682;28;20487;-71
2022/11/10 04:24:27;;;;;;;2.58;1.38;;;;;;;0.71;65.82;97526.06;6177581;28;20082;-70
2022/11/10 04:27:33;;;;;;;2.80;1.20;;;;;;;0.79;65.65;97516.44;6194582;28;20050;-70
2022/11/10 04:30:40;;;;;;;1.90;1.40;;;;;;;0.92;65.30;97521.41;6194431;28;20568;-71
2022/11/10 04:33:48;;;;;;;1.77;1.52;;;;;;;1.00;65.63;97524.75;6193043;28;20050;-70
2022/11/10 04:36:55;;;;;;;1.40;1.20;;;;;;;1.11;64.58;97509.88;6197231;28;20387;-71
2022/11/10 04:39:59;;;;;;;1.30;1.20;;;;;;;1.23;64.83;97524.34;6182332;28;20038;-70
2022/11/10 04:43:05;;;;;;;2.40;1.83;;;;;;;1.41;64.04;97533.53;6180985;28;20485;-70
2022/11/10 04:46:18;;;;;;;1.38;1.27;;;;;;;1.35;65.02;97527.56;6192345;28;20038;-70
2022/11/10 04:49:24;;;;;;;1.15;1.00;;;;;;;1.63;64.35;97532.25;6196794;28;20141;-70
2022/11/10 04:52:28;;;;;;;1.10;1.00;;;;;;;1.76;63.05;97533.75;6195240;28;20089;-71
2022/11/10 04:55:38;;;;;;;1.60;1.50;;;;;;;1.74;63.29;97540.69;6194550;28;20038;-71
2022/11/10 04:58:44;;;;;;;1.65;1.50;;;;;;;1.74;62.89;97525.13;6190493;28;20050;-70
2022/11/10 05:01:48;;;;;;;1.40;1.30;;;;;;;1.73;63.18;97518.25;6196200;28;20140;-70
2022/11/10 05:04:54;;;;;;;1.15;1.00;;;;;;;1.75;62.97;97526.81;6196858;28;20530;-70
2022/11/10 05:08:01;;;;;;;1.65;1.50;;;;;;;1.83;63.06;97528.44;6197310;28;20514;-70
2022/11/10 05:11:05;;;;;;;2.10;1.80;;;;;;;1.70;63.37;97533.88;6191421;28;20137;-70
2022/11/10 05:14:10;;;;;;;2.63;1.70;;;;;;;1.69;64.37;97536.47;6190683;28;20038;-69
2022/11/10 05:17:16;;;;;;;1.42;1.33;;;;;;;1.88;63.47;97542.19;6197098;28;20149;-70
2022/11/10 05:20:24;;;;;;;1.73;1.30;;;;;;;2.19;62.87;97545.84;6190905;28;20054;-70
2022/11/10 05:23:37;;;;;;;1.40;1.30;;;;;;;2.28;62.44;97542.22;6188415;28;20050;-70
2022/11/10 05:26:41;;;;;;;1.30;1.20;;;;;;;2.35;61.93;97527.34;6182165;28;22990;-70
2022/11/10 05:29:45;;;;;;;1.30;1.20;;;;;;;2.32;62.14;97530.88;6185696;28;20371;-71
2022/11/10 05:32:49;;;;;;;2.33;1.65;;;;;;;2.48;61.97;97516.66;6193616;28;20588;-70
2022/11/10 05:35:56;;;;;;;2.45;1.80;;;;;;;2.65;61.50;97526.66;6194122;28;20141;-70
2022/11/10 05:39:06;;;;;;;1.30;1.10;;;;;;;2.91;60.93;97533.00;6195775;28;20039;-70
2022/11/10 05:42:08;;;;;;;1.95;1.42;;;;;;;3.07;60.25;97539.53;6195515;28;20069;-70
2022/11/10 05:45:12;;;;;;;2.00;1.30;;;;;;;2.99;60.33;97546.66;6192310;28;20047;-70
2022/11/10 05:48:16;;;;;;;2.83;1.55;;;;;;;3.32;59.38;97544.16;6194314;28;20433;-71
2022/11/10 05:51:18;;;;;;;1.63;1.52;;;;;;;3.71;58.34;97546.59;6193090;28;20046;-70
2022/11/10 05:54:24;;;;;;;2.35;0.88;;;;;;;3.91;57.29;97539.13;6195686;28;20541;-70
2022/11/10 05:57:28;;;;;;;1.10;1.00;;;;;;;5.20;56.00;97552.63;6197166;28;20061;-70
2022/11/10 06:00:33;;;;;;;1.15;0.75;;;;;;;8.65;48.41;97549.56;6188743;28;20394;-70
2022/11/10 06:03:37;;;;;;;0.73;0.73;;;;;;;11.83;41.67;97557.41;6195347;28;20050;-70
2022/11/10 06:06:46;;;;;;;1.63;0.63;;;;;;;13.47;36.57;97550.78;6195093;28;20050;-69
2022/11/10 06:09:47;;;;;;;1.77;0.85;;;;;;;13.72;35.77;97567.66;6196037;28;20051;-72
2022/11/10 06:12:53;;;;;;;0.70;0.70;;;;;;;14.70;34.15;97554.81;6190627;28;20505;-70
2022/11/10 06:15:54;;;;;;;1.20;0.90;;;;;;;15.99;32.02;97554.19;6179266;28;20058;-71
2022/11/10 06:19:02;;;;;;;1.10;1.00;;;;;;;17.58;28.64;97562.06;6196199;28;20050;-69
2022/11/10 06:22:06;;;;;;;1.90;0.80;;;;;;;18.27;28.55;97568.78;6194708;28;20046;-70
2022/11/10 06:25:11;;;;;;;0.90;0.70;;;;;;;19.51;27.10;97563.25;6195518;28;20049;-68
2022/11/10 06:28:18;;;;;;;0.60;0.60;;;;;;;19.71;26.13;97562.31;6193954;28;20046;-69
2022/11/10 06:31:19;;;;;;;1.23;0.60;;;;;;;19.58;25.94;97568.88;6174934;28;20093;-70
2022/11/10 06:34:23;;;;;;;;;;;;;;;20.75;24.09;97583.00;6194043;28;20058;-71
2022/11/10 06:37:30;;;;;;;;;;;;;;;21.69;25.35;97583.69;6172553;28;19941;-68
2022/11/10 06:40:38;;;;;;;0.68;0.57;;;;;;;21.44;23.09;97574.53;6187150;28;19926;-69
2022/11/10 06:43:40;;;;;;;0.80;0.80;;;;;;;21.46;22.61;97588.63;6192973;28;21775;-69
2022/11/10 06:46:44;;;;;;;;;;;;;;;22.12;23.43;97589.28;6189951;28;20046;-69
2022/11/10 06:49:48;;;;;;;0.50;0.50;;;;;;;21.87;22.79;97581.00;6193636;28;19921;-69
2022/11/10 06:52:55;;;;;;;1.13;0.70;;;;;;;22.14;22.79;97592.66;6192861;28;20038;-69
2022/11/10 06:56:03;;;;;;;0.43;0.43;;;;;;;23.04;21.09;97590.59;6193372;28;20050;-69
2022/11/10 06:59:09;;;;;;;0.93;0.88;;;;;;;23.91;20.44;97599.31;6184527;28;20493;-70
2022/11/10 07:02:14;;;;;;;1.00;0.70;;;;;;;23.91;19.88;97604.69;6192269;28;20505;-71
2022/11/10 07:05:18;;;;;;;0.98;0.63;;;;;;;23.44;20.74;97591.78;6194214;28;20050;-70
2022/11/10 07:08:22;;;;;;;0.70;0.60;;;;;;;23.56;20.66;97589.66;6176207;28;20051;-69
2022/11/10 07:11:26;;;;;;;0.70;0.57;;;;;;;23.47;20.11;97586.09;6191888;28;20055;-72
2022/11/10 07:14:34;;;;;;;0.45;0.45;;;;;;;23.68;20.37;97599.91;6183219;28;20468;-70
2022/11/10 07:17:44;;;;;;;0.60;0.60;;;;;;;24.05;19.44;97585.22;6191132;28;20429;-69
2022/11/10 07:20:48;;;;;;;0.73;0.60;;;;;;;25.35;18.95;97594.13;6173370;28;20047;-69
2022/11/10 07:23:52;;;;;;;1.10;0.80;;;;;;;26.55;18.12;97594.56;6171054;28;20047;-69
2022/11/10 07:27:01;;;;;;;1.40;1.23;;;;;;;26.78;17.93;97590.94;6193256;28;20042;-69
2022/11/10 07:30:04;;;;;;;1.70;0.70;;;;;;;26.26;18.04;97589.88;6177420;28;20137;-69
2022/11/10 07:33:09;;;;;;;0.75;0.73;;;;;;;25.65;18.06;97592.47;6191987;28;20046;-69
2022/11/10 07:36:16;;;;;;;1.00;0.82;;;;;;;24.83;18.81;97594.63;6185744;28;20043;-69
2022/11/10 07:39:20;;;;;;;1.70;1.15;;;;;;;25.06;18.89;97592.84;6170429;28;20042;-69
2022/11/10 07:42:29;;;;;;;1.45;0.98;;;;;;;24.97;18.78;97591.22;6186565;28;20047;-69
2022/11/10 07:45:33;;;;;;;1.40;1.02;;;;;;;25.21;19.00;97584.91;6183473;28;20050;-68
2022/11/10 07:48:37;;;;;;;0.70;0.65;;;;;;;24.43;18.66;97593.66;6198139;28;20497;-70
2022/11/10 07:51:41;;;;;;;0.52;0.52;;;;;;;23.55;19.88;97599.53;6188803;28;20053;-69
2022/11/10 07:54:45;;;;;;;0.70;0.70;;;;;;;22.84;20.35;97596.19;6175708;28;20038;-70
2022/11/10 07:57:58;;;;;;;1.23;1.08;;;;;;;23.35;20.16;97604.34;6179120;28;20047;-69
2022/11/10 08:01:02;;;;;;;1.38;0.70;;;;;;;23.60;19.33;97581.09;6190833;28;20042;-70
2022/11/10 08:04:11;;;;;;;0.50;0.40;;;;;;;20.33;22.65;97573.53;6197051;28;20042;-70
2022/11/10 08:07:20;;;;;;;0.75;0.60;;;;;;;16.89;26.90;97577.41;6186449;28;20461;-70
2022/11/10 08:10:22;;;;;;;0.65;0.50;;;;;;;17.70;26.06;97577.00;6192920;28;20498;-69
2022/11/10 08:13:23;;;;;;;0.57;0.45;;;;;;;19.52;24.30;97588.94;6198555;28;20053;-69
2022/11/10 08:16:31;;;;;;;0.70;0.50;;;;;;;21.41;22.11;97598.94;6198358;28;20069;-69
2022/11/10 08:19:37;;;;;;;0.73;0.60;;;;;;;22.34;20.98;97599.53;6192345;28;20034;-69
2022/11/10 08:22:42;;;;;;;0.70;0.70;;;;;;;22.12;21.14;97600.00;6198609;28;20045;-75
2022/11/10 08:25:45;;;;;;;0.80;0.60;;;;;;;21.57;21.62;97600.09;6190902;28;20043;-73
2022/11/10 08:28:47;;;;;;;0.88;0.75;;;;;;;21.46;21.92;97593.97;6189300;28;20054;-73
2022/11/10 08:31:48;;;;;;;0.70;0.50;;;;;;;22.17;21.31;97592.34;6179351;28;20065;-72
2022/11/10 08:34:54;;;;;;;1.02;0.80;;;;;;;23.04;20.47;97598.66;6187983;28;20051;-73
2022/11/10 08:37:55;;;;;;;1.17;0.88;;;;;;;23.90;19.51;97597.66;6178157;28;20061;-74
2022/11/10 08:41:01;;;;;;;1.58;1.27;;;;;;;24.50;19.22;97588.44;6185473;28;20077;-73
2022/11/10 08:44:03;;;;;;;1.95;1.10;;;;;;;24.73;19.18;97584.03;6189417;28;20181;-74
2022/11/10 08:47:09;;;;;;;1.42;1.00;;;;;;;24.37;19.25;97578.16;6182100;28;20042;-75
2022/11/10 08:50:10;;;;;;;6.80;4.35;;;;;;;23.57;20.30;97586.78;6184838;28;20134;-73
2022/11/10 08:53:22;;;;;;;0.82;0.77;;;;;;;22.61;20.65;97581.63;6176266;28;20418;-74
2022/11/10 08:56:24;;;;;;;1.20;0.85;;;;;;;21.00;22.25;97570.78;6189647;28;20200;-74
2022/11/10 08:59:28;;;;;;;0.68;0.68;;;;;;;20.09;23.08;97570.44;6184990;28;20050;-73
2022/11/10 09:02:32;;;;;;;1.30;0.90;;;;;;;18.47;24.94;97569.72;6191814;28;20553;-72
2022/11/10 09:05:38;;;;;;;0.55;0.55;;;;;;;16.95;26.86;97563.63;6193739;28;20042;-71
2022/11/10 09:08:43;;;;;;;0.52;0.52;;;;;;;16.02;28.25;97555.78;6195014;28;20057;-71
2022/11/10 09:11:47;;;;;;;2.65;1.30;;;;;;;15.17;29.46;97561.16;6191916;28;20046;-71
2022/11/10 09:14:54;;;;;;;1.83;1.70;;;;;;;14.31;30.91;97565.41;6183224;28;20414;-71
2022/11/10 09:18:05;;;;;;;1.70;1.60;;;;;;;13.75;32.09;97583.31;6194204;28;20433;-71
2022/11/10 09:21:11;;;;;;;1.20;1.10;;;;;;;13.83;31.74;97572.22;6190893;28;20069;-74
2022/11/10 09:24:21;;;;;;;0.95;0.95;;;;;;;14.01;31.73;97564.84;6197614;28;20050;-73
2022/11/10 09:27:25;;;;;;;0.80;0.70;;;;;;;14.03;31.95;97584.97;6177718;28;20058;-73
2022/11/10 09:30:34;;;;;;;1.58;1.10;;;;;;;13.23;33.58;97573.47;6182685;28;20038;-73
2022/11/10 09:33:38;;;;;;;1.80;1.50;;;;;;;12.25;35.01;97564.59;6182955;28;20049;-73
2022/11/10 09:36:48;;;;;;;1.65;1.38;;;;;;;10.86;37.58;97555.03;6180650;28;20062;-73
2022/11/10 09:39:55;;;;;;;1.98;1.20;;;;;;;10.08;39.43;97565.31;6190767;28;20133;-73
2022/11/10 09:43:11;;;;;;;3.30;1.20;;;;;;;9.71;40.61;97563.72;6190948;28;20097;-73
2022/11/10 09:46:45;;;;;;;2.22;1.60;;;;;;;9.32;41.69;97566.53;6179555;28;20051;-72
2022/11/10 09:49:56;;;;;;;1.40;1.30;;;;;;;9.06;42.61;97570.38;6176061;28;20482;-73
2022/11/10 09:53:12;;;;;;;1.50;1.33;;;;;;;8.67;43.44;97556.47;6192891;28;20151;-72
2022/11/10 09:56:25;;;;;;;2.05;1.40;;;;;;;8.44;44.54;97559.28;6171198;28;20050;-72
2022/11/10 09:59:34;;;;;;;1.60;1.50;;;;;;;8.17;45.45;97574.44;6172707;28;20081;-72
2022/11/10 10:02:44;;;;;;;1.35;1.25;;;;;;;8.17;45.64;97558.72;6186215;28;20065;-73
2022/11/10 10:05:57;;;;;;;1.73;1.30;;;;;;;7.92;46.18;97566.78;6196554;28;20057;-69
2022/11/10 10:09:01;;;;;;;1.45;1.35;;;;;;;7.83;46.96;97583.75;6186124;28;20046;-70
2022/11/10 10:12:39;;;;;;;1.42;1.33;;;;;;;7.58;47.58;97582.16;6196404;28;20038;-70
2022/11/10 10:15:52;;;;;;;1.77;1.33;;;;;;;7.47;48.08;97579.13;6191030;28;20061;-70
2022/11/10 10:19:55;;;;;;;3.40;1.07;;;;;;;7.39;48.14;97595.16;6172541;28;20539;-68
2022/11/10 10:23:05;;;;;;;1.90;1.80;;;;;;;6.78;50.05;97594.09;6132195;28;20042;-70
2022/11/10 10:26:14;;;;;;;1.90;1.77;;;;;;;6.64;50.26;97598.09;6195765;28;20046;-68
2022/11/10 10:29:43;;;;;;;2.20;2.00;;;;;;;6.31;51.02;97597.56;6183533;28;20038;-69
2022/11/10 10:32:44;;;;;;;2.55;1.70;;;;;;;6.08;51.83;97598.38;6178617;28;20066;-69
2022/11/10 10:35:53;;;;;;;2.70;2.22;;;;;;;5.98;52.09;97589.19;6196070;28;20416;-69
2022/11/10 10:39:07;;;;;;;2.30;2.10;;;;;;;6.09;52.30;97600.13;6196391;28;20034;-68
2022/11/10 10:42:37;;;;;;;3.25;2.38;;;;;;;5.87;53.08;97594.75;6178889;28;20042;-68
2022/11/10 10:45:41;;;;;;;3.42;2.97;;;;;;;5.67;53.82;97608.47;6194709;28;20494;-69
2022/11/10 10:48:45;;;;;;;3.03;2.67;;;;;;;5.61;54.15;97608.69;6196187;28;20425;-69
2022/11/10 10:51:50;;;;;;;3.15;2.92;;;;;;;5.50;54.69;97600.34;6196668;28;20133;-69
2022/11/10 10:55:05;;;;;;;5.97;3.40;;;;;;;5.33;55.37;97613.94;6196460;28;20046;-69
2022/11/10 10:58:31;;;;;;;3.65;2.60;;;;;;;5.25;55.11;97601.16;6196010;28;20057;-69
2022/11/10 11:01:42;;;;;;;3.13;2.75;;;;;;;5.23;55.53;97604.69;6195647;28;20042;-68
2022/11/10 11:04:48;;;;;;;3.25;2.88;;;;;;;5.06;55.49;97605.22;6196139;28;20057;-69
2022/11/10 11:07:57;;;;;;;3.72;3.08;;;;;;;4.62;57.01;97604.84;6196100;28;20066;-69
2022/11/10 11:11:07;;;;;;;3.38;2.75;;;;;;;4.72;57.22;97608.84;6195712;28;20042;-69
2022/11/10 11:14:23;;;;;;;3.70;3.30;;;;;;;4.54;57.90;97617.25;6195983;28;20045;-69
2022/11/10 11:17:30;;;;;;;2.08;1.88;;;;;;;4.39;57.90;97608.97;6204424;28;20062;-70
2022/11/10 11:20:59;;;;;;;4.28;3.45;;;;;;;4.21;58.53;97614.66;6223634;28;20108;-70
2022/11/10 11:24:30;;;;;;;4.30;3.60;;;;;;;3.89;59.77;97613.78;6207038;28;20042;-69
2022/11/10 11:28:11;;;;;;;5.03;3.38;;;;;;;4.16;59.06;97626.97;6182126;28;20062;-70
2022/11/10 11:31:27;;;;;;;3.30;2.97;;;;;;;3.94;59.44;97624.94;6191331;28;20085;-70
2022/11/10 11:34:45;;;;;;;6.18;4.43;;;;;;;3.66;60.35;97636.97;6200807;28;20050;-70
2022/11/10 11:38:03;;;;;;;6.22;4.57;;;;;;;3.58;60.84;97631.94;6198539;28;20414;-70
2022/11/10 11:41:16;;;;;;;4.95;3.92;;;;;;;3.51;61.25;97640.78;6188761;28;20134;-69
2022/11/10 11:44:41;;;;;;;5.15;3.67;;;;;;;3.40;61.43;97630.66;6176487;28;20052;-70
2022/11/10 11:47:59;;;;;;;5.30;4.32;;;;;;;3.27;61.77;97634.44;6176744;28;20058;-69
2022/11/10 11:51:16;;;;;;;5.25;3.70;;;;;;;3.12;62.31;97631.31;6200394;28;20058;-70
2022/11/10 11:54:20;;;;;;;4.60;3.40;;;;;;;3.22;61.98;97633.69;6199314;28;20058;-70
2022/11/10 11:57:51;;;;;;;5.93;4.32;;;;;;;3.20;61.78;97630.25;6199672;28;20065;-69
2022/11/10 12:01:23;;;;;;;8.25;4.65;;;;;;;3.07;62.44;97632.28;6200346;28;20053;-70
2022/11/10 12:04:36;;;;;;;4.93;3.72;;;;;;;2.93;63.06;97624.81;6198893;28;20571;-69
2022/11/10 12:07:49;;;;;;;5.43;4.25;;;;;;;2.92;63.15;97628.31;6175736;28;20055;-70
2022/11/10 12:11:02;;;;;;;6.00;4.82;;;;;;;2.72;63.40;97625.25;6175888;28;20501;-70
2022/11/10 12:14:41;;;;;;;8.00;4.93;;;;;;;2.81;63.38;97632.88;6175457;28;20051;-70
2022/11/10 12:18:01;;;;;;;6.75;5.03;;;;;;;2.57;64.16;97632.50;6206247;28;20053;-69
2022/11/10 12:21:33;;;;;;;7.10;5.10;;;;;;;2.91;63.48;97631.78;6223790;28;20169;-69
2022/11/10 12:25:00;;;;;;;9.25;6.40;;;;;;;2.84;63.79;97635.41;6176652;28;20050;-70
2022/11/10 12:28:22;;;;;;;10.73;5.90;;;;;;;2.70;63.97;97628.75;6174772;28;20069;-69
2022/11/10 12:31:30;;;;;;;11.30;7.10;;;;;;;2.50;65.14;97630.94;6173782;28;20411;-70
2022/11/10 12:34:41;;;;;;;10.95;6.55;;;;;;;2.45;65.21;97637.97;6173847;28;20062;-68
2022/11/10 12:37:54;;;;;;;9.45;5.55;;;;;;;2.41;65.69;97638.91;6175731;28;20050;-69
2022/11/10 12:41:06;;;;;;;12.32;6.65;;;;;;;2.33;65.93;97627.81;6194343;28;20042;-69
2022/11/10 12:44:38;;;;;;;8.82;5.65;;;;;;;2.21;66.06;97640.16;6198726;28;20108;-70
2022/11/10 12:47:44;;;;;;;8.68;5.90;;;;;;;2.12;66.31;97634.28;6198795;28;20070;-70
2022/11/10 12:51:06;;;;;;;9.43;6.25;;;;;;;1.94;67.35;97638.06;6198444;28;20188;-70
2022/11/10 12:54:14;;;;;;;9.00;6.40;;;;;;;1.88;67.61;97640.78;6198917;28;20104;-69
2022/11/10 12:57:25;;;;;;;8.63;6.65;;;;;;;1.91;67.78;97636.38;6198969;28;20058;-70
2022/11/10 13:00:42;;;;;;;9.85;6.65;;;;;;;1.89;67.83;97642.50;6198522;28;20046;-72
2022/11/10 13:03:59;;;;;;;9.02;5.93;;;;;;;2.13;67.53;97647.25;6199198;28;20189;-71
2022/11/10 13:07:04;;;;;;;8.85;6.20;;;;;;;2.19;67.41;97641.94;6198080;28;20055;-70
2022/11/10 13:10:17;;;;;;;8.50;5.97;;;;;;;2.02;67.94;97633.59;6198857;28;20050;-71
2022/11/10 13:13:20;;;;;;;8.60;5.50;;;;;;;2.01;67.88;97631.91;6197372;28;20513;-69
2022/11/10 13:16:52;;;;;;;5.45;4.30;;;;;;;2.29;67.09;97637.41;6197792;28;20068;-69
2022/11/10 13:19:57;;;;;;;9.43;5.95;;;;;;;2.16;67.25;97642.00;6193720;28;20967;-69
2022/11/10 13:23:22;;;;;;;6.72;4.35;;;;;;;2.16;67.46;97642.00;6198076;28;20046;-70
2022/11/10 13:26:37;;;;;;;7.20;4.43;;;;;;;2.22;67.49;97652.25;6197985;28;20052;-70
2022/11/10 13:29:44;;;;;;;10.57;6.00;;;;;;;2.20;67.30;97648.81;6196747;28;20046;-70
2022/11/10 13:32:46;;;;;;;7.90;5.00;;;;;;;2.09;68.09;97650.75;6173472;28;20057;-69
2022/11/10 13:35:55;;;;;;;6.80;5.22;;;;;;;2.00;67.95;97637.97;6172900;28;20135;-70
2022/11/10 13:39:23;;;;;;;11.98;7.00;;;;;;;1.91;68.24;97631.19;6176208;28;20050;-70
2022/11/10 13:42:26;;;;;;;9.18;6.20;;;;;;;1.80;68.62;97623.59;6194966;28;20046;-69
2022/11/10 13:45:38;;;;;;;8.38;5.43;;;;;;;1.99;68.57;97638.84;6196366;28;20042;-70
2022/11/10 13:48:54;;;;;;;9.25;5.38;;;;;;;1.84;68.63;97644.31;6196511;28;20056;-69
2022/11/10 13:52:07;;;;;;;8.68;5.45;;;;;;;1.88;68.41;97653.75;6197567;28;20137;-70
2022/11/10 13:55:43;;;;;;;7.22;5.88;;;;;;;1.86;68.66;97658.13;6197554;28;20054;-70
2022/11/10 13:58:47;;;;;;;6.85;4.28;;;;;;;1.90;69.00;97660.66;6196448;28;20050;-69
2022/11/10 14:02:13;;;;;;;8.77;5.28;;;;;;;1.85;69.08;97659.00;6196519;28;20054;-69
2022/11/10 14:05:37;;;;;;;9.95;4.88;;;;;;;1.95;68.63;97668.31;6196221;28;20406;-70
2022/11/10 14:08:45;;;;;;;6.88;4.80;;;;;;;1.86;68.91;97665.91;6197061;28;20060;-70
2022/11/10 14:11:58;;;;;;;4.15;2.50;;;;;;;1.94;68.84;97656.25;6197213;28;20058;-70
2022/11/10 14:15:07;;;;;;;8.48;5.47;;;;;;;1.92;69.35;97668.38;6196454;28;20197;-68
2022/11/10 14:18:28;;;;;;;7.88;4.43;;;;;;;1.84;69.98;97670.25;6206393;28;20054;-70
2022/11/10 14:22:02;;;;;;;8.02;5.22;;;;;;;1.67;70.47;97666.25;6197071;28;20485;-70
2022/11/10 14:25:22;;;;;;;7.15;5.05;;;;;;;1.72;70.06;97664.41;6196889;28;20434;-70
2022/11/10 14:28:32;;;;;;;7.15;4.93;;;;;;;1.82;69.87;97677.22;6196854;28;20047;-70
2022/11/10 14:31:46;;;;;;;5.90;3.88;;;;;;;1.79;69.93;97681.59;6197106;28;20494;-70
2022/11/10 14:34:52;;;;;;;5.20;4.18;;;;;;;1.80;69.89;97669.47;6196565;28;20387;-69
2022/11/10 14:38:01;;;;;;;10.23;6.43;;;;;;;1.76;69.95;97680.78;6196521;28;20398;-70
2022/11/10 14:41:12;;;;;;;9.15;4.55;;;;;;;1.72;70.57;97681.72;6179218;28;20046;-71
2022/11/10 14:44:24;;;;;;;11.32;6.45;;;;;;;1.72;70.62;97677.38;6172285;28;20057;-71
2022/11/10 14:47:34;;;;;;;10.20;6.15;;;;;;;1.52;71.13;97674.25;6172709;28;20526;-71
2022/11/10 14:50:41;;;;;;;8.85;6.00;;;;;;;1.28;72.02;97676.34;6172537;28;20051;-71
2022/11/10 14:53:49;;;;;;;9.65;5.85;;;;;;;1.10;72.97;97672.31;6172209;28;20058;-70
2022/11/10 14:56:58;;;;;;;8.70;5.88;;;;;;;1.10;73.35;97667.13;6191309;28;20042;-70
2022/11/10 15:00:07;;;;;;;7.88;4.70;;;;;;;1.26;72.59;97672.06;6196391;28;20046;-71
2022/11/10 15:03:17;;;;;;;8.82;5.78;;;;;;;1.02;73.51;97673.28;6196557;28;20086;-71
2022/11/10 15:06:21;;;;;;;8.45;5.90;;;;;;;1.05;73.39;97670.66;6195176;28;20595;-72
2022/11/10 15:09:29;;;;;;;;;;;;;;;1.06;73.97;97682.72;6195584;28;20050;-70
2022/11/10 15:12:30;;;;;;;10.00;6.43;;;;;;;0.90;74.67;97674.31;6195352;28;19928;-71
2022/11/10 15:15:34;;;;;;;11.40;5.95;;;;;;;0.92;74.96;97671.69;6196423;28;20047;-70